Time;durP1;ratioP1;P1;durP2;ratioP2;P2;SDS_P1;SDS_P2;PMS_P1;PMS_P2;Temp;Humidity;BMP_temperature;BMP_pressure;BME280_temperature;BME280_humidity;BME280_pressure;Samples;Min_cycle;Max_cycle;Signal;HPM_P1;HPM_P2
2022/08/14 00:02:21;;;;;;;7.05;6.45;;;;;;;22.15;53.38;100189.84;10369923;28;20294;-75
2022/08/14 00:07:26;;;;;;;8.73;7.90;;;;;;;22.22;53.04;100195.34;10373976;28;20119;-75
2022/08/14 00:12:32;;;;;;;8.52;6.85;;;;;;;22.14;53.43;100201.00;10399055;28;20053;-75
2022/08/14 00:17:54;;;;;;;8.57;7.75;;;;;;;21.75;54.10;100188.81;10370097;28;20631;-75
2022/08/14 00:22:58;;;;;;;8.77;7.03;;;;;;;21.65;55.14;100184.56;10373158;28;20045;-76
2022/08/14 00:28:17;;;;;;;9.20;8.25;;;;;;;21.77;55.16;100186.75;10372321;28;20568;-77
2022/08/14 00:33:20;;;;;;;9.85;7.90;;;;;;;21.79;55.12;100176.47;10370422;28;20491;-76
2022/08/14 00:38:43;;;;;;;11.02;9.43;;;;;;;21.81;54.46;100164.28;10371942;28;20049;-76
2022/08/14 00:43:49;;;;;;;10.40;8.63;;;;;;;21.67;55.17;100167.97;10372967;28;20519;-76
2022/08/14 00:48:52;;;;;;;8.73;7.82;;;;;;;21.00;56.83;100175.66;10393601;28;20050;-75
2022/08/14 00:53:55;;;;;;;8.40;7.60;;;;;;;20.71;58.13;100160.31;10372776;28;20080;-76
2022/08/14 00:59:00;;;;;;;10.65;7.93;;;;;;;20.86;57.98;100162.97;10371010;28;20116;-76
2022/08/14 01:04:04;;;;;;;10.88;8.57;;;;;;;21.04;57.21;100167.97;10370322;28;21247;-75
2022/08/14 01:09:07;;;;;;;9.52;8.05;;;;;;;21.23;57.01;100160.97;10371117;28;20417;-74
2022/08/14 01:14:14;;;;;;;10.15;8.68;;;;;;;21.23;56.66;100159.09;10394252;28;20041;-74
2022/08/14 01:24:56;;;;;;;13.35;9.32;;;;;;;20.99;57.04;100145.84;10365919;28;20077;-75
2022/08/14 01:29:59;;;;;;;10.63;9.05;;;;;;;21.04;57.31;100148.03;10370998;28;20045;-76
2022/08/14 01:35:07;;;;;;;11.43;9.82;;;;;;;21.03;57.40;100136.22;10369061;28;20049;-75
2022/08/14 01:40:31;;;;;;;14.60;11.55;;;;;;;20.97;57.45;100131.56;10374881;28;20122;-74
2022/08/14 01:45:44;;;;;;;16.02;10.60;;;;;;;20.83;57.56;100135.22;10373129;28;20049;-78
2022/08/14 01:50:51;;;;;;;10.10;9.05;;;;;;;20.84;57.73;100135.00;10375434;28;20081;-75
2022/08/14 01:55:58;;;;;;;13.88;9.52;;;;;;;20.93;57.66;100125.66;10374157;28;20042;-75
2022/08/14 02:01:03;;;;;;;9.27;8.35;;;;;;;20.87;57.51;100115.53;10377147;28;20502;-77
2022/08/14 02:06:11;;;;;;;13.70;9.43;;;;;;;20.79;57.66;100113.78;10397194;28;20041;-76
2022/08/14 02:11:36;;;;;;;11.63;9.05;;;;;;;20.77;57.62;100104.94;10375372;28;20173;-75
2022/08/14 02:16:40;;;;;;;9.10;8.20;;;;;;;20.67;58.02;100089.97;10374195;28;21326;-77
2022/08/14 02:21:46;;;;;;;9.35;8.45;;;;;;;20.74;58.20;100094.44;10374626;28;20125;-75
2022/08/14 02:26:53;;;;;;;8.55;7.75;;;;;;;20.76;57.91;100091.50;10375162;28;20131;-74
2022/08/14 02:32:17;;;;;;;9.20;8.02;;;;;;;20.71;57.83;100089.38;10375993;28;20708;-76
2022/08/14 02:37:32;;;;;;;10.13;9.02;;;;;;;20.60;58.10;100089.03;10375140;28;20180;-75
2022/08/14 02:42:51;;;;;;;9.88;8.35;;;;;;;20.56;58.55;100094.06;10398871;28;20064;-75
2022/08/14 02:47:59;;;;;;;9.07;8.18;;;;;;;20.61;58.23;100083.41;10375882;28;20045;-76
2022/08/14 02:53:04;;;;;;;9.05;8.25;;;;;;;20.56;58.31;100075.81;10374989;28;20045;-76
2022/08/14 02:58:11;;;;;;;8.73;7.65;;;;;;;20.50;58.56;100068.41;10374987;28;20502;-75
2022/08/14 03:03:30;;;;;;;9.00;8.10;;;;;;;20.51;58.69;100070.09;10374902;28;20056;-76
2022/08/14 03:08:42;;;;;;;8.52;7.72;;;;;;;20.41;58.74;100066.88;10375684;28;20152;-76
2022/08/14 03:13:51;;;;;;;9.52;8.48;;;;;;;20.30;59.23;100051.84;10375402;28;20530;-76
2022/08/14 03:18:59;;;;;;;11.43;8.02;;;;;;;20.16;59.72;100049.19;10372286;28;20521;-76
2022/08/14 03:24:10;;;;;;;9.43;8.45;;;;;;;20.12;60.05;100051.47;10373433;28;20049;-76
2022/08/14 03:29:27;;;;;;;9.43;8.45;;;;;;;20.11;59.94;100047.91;10371435;28;20060;-76
2022/08/14 03:34:31;;;;;;;10.05;9.15;;;;;;;20.08;60.07;100040.13;10370765;28;21426;-74
2022/08/14 03:39:54;;;;;;;10.27;9.15;;;;;;;20.07;59.83;100048.47;10371322;28;20130;-74
2022/08/14 03:44:59;;;;;;;12.10;9.63;;;;;;;19.93;60.35;100047.50;10372102;28;20049;-76
2022/08/14 03:50:22;;;;;;;10.93;9.80;;;;;;;19.84;60.84;100022.25;10374020;28;20419;-75
2022/08/14 03:55:32;;;;;;;10.65;9.55;;;;;;;19.84;60.72;100015.97;10374858;28;20514;-76
2022/08/14 04:00:38;;;;;;;11.98;10.20;;;;;;;19.72;60.85;100015.63;10372643;28;20244;-75
2022/08/14 04:05:46;;;;;;;11.38;9.52;;;;;;;19.64;61.20;100008.44;10370578;28;20191;-75
2022/08/14 04:10:50;;;;;;;10.30;9.30;;;;;;;19.67;61.42;100004.47;10370990;28;21146;-76
2022/08/14 04:15:56;;;;;;;9.52;7.53;;;;;;;19.70;61.32;100009.53;10372408;28;20045;-76
2022/08/14 04:21:07;;;;;;;9.02;8.23;;;;;;;19.80;61.06;100009.19;10370842;28;20079;-75
2022/08/14 04:26:13;;;;;;;9.63;8.73;;;;;;;19.78;60.81;99990.34;10369267;28;20053;-75
2022/08/14 04:31:38;;;;;;;10.65;7.68;;;;;;;19.83;60.84;99984.31;10369214;28;20411;-76
2022/08/14 04:48:12;;;;;;;7.80;6.95;;;;;;;20.16;60.31;99992.78;10378901;28;20061;-75
2022/08/14 04:53:39;;;;;;;9.50;8.60;;;;;;;20.25;60.25;99997.06;10367169;28;20046;-75
2022/08/14 04:58:46;;;;;;;10.15;8.32;;;;;;;20.19;60.38;99992.41;10370481;28;20508;-75
2022/08/14 05:03:51;;;;;;;8.82;7.75;;;;;;;20.29;60.17;99992.03;10369938;28;20127;-75
2022/08/14 05:08:56;;;;;;;7.85;7.03;;;;;;;20.39;60.01;99978.09;10364039;28;21172;-75
2022/08/14 05:14:03;;;;;;;9.27;7.68;;;;;;;20.38;59.99;99982.72;10378386;28;20076;-76
2022/08/14 05:19:27;;;;;;;8.63;7.80;;;;;;;20.37;60.25;99986.47;10378713;28;20049;-75
2022/08/14 05:24:31;;;;;;;9.13;8.32;;;;;;;20.44;59.83;99990.09;10379197;28;20079;-76
2022/08/14 05:29:34;;;;;;;9.32;8.43;;;;;;;19.17;64.07;100000.69;10379408;28;20197;-76
2022/08/14 05:34:39;;;;;;;11.40;7.93;;;;;;;19.78;62.53;99994.94;10379536;28;20465;-76
2022/08/14 05:39:47;;;;;;;10.38;7.90;;;;;;;20.00;62.01;100007.53;10400737;28;20495;-76
2022/08/14 05:44:50;;;;;;;8.50;7.70;;;;;;;20.33;61.41;100002.41;10374845;28;20049;-75
2022/08/14 05:49:58;;;;;;;13.77;8.30;;;;;;;20.61;60.47;99990.63;10378290;28;20045;-76
2022/08/14 05:55:02;;;;;;;10.00;9.05;;;;;;;20.74;60.12;99982.53;10379242;28;20676;-76
2022/08/14 06:00:06;;;;;;;12.02;9.52;;;;;;;20.89;60.14;99987.03;10397245;28;20057;-75
2022/08/14 06:05:12;;;;;;;9.18;8.40;;;;;;;21.01;59.48;99989.00;10379481;28;20041;-75
2022/08/14 06:10:17;;;;;;;10.50;9.00;;;;;;;21.26;59.11;99974.00;10394211;28;20089;-75
2022/08/14 06:15:20;;;;;;;10.65;9.55;;;;;;;21.50;58.90;99975.31;10394091;28;20056;-75
2022/08/14 06:20:31;;;;;;;10.23;9.20;;;;;;;21.66;58.80;99970.31;10378452;28;20057;-75
2022/08/14 06:25:36;;;;;;;10.57;9.55;;;;;;;21.98;57.87;99970.63;10377120;28;20064;-76
2022/08/14 06:30:41;;;;;;;12.50;9.80;;;;;;;22.21;57.64;99980.28;10378223;28;20607;-75
2022/08/14 06:35:50;;;;;;;10.25;9.30;;;;;;;22.47;56.69;99971.28;10397199;28;20068;-76
2022/08/14 06:40:53;;;;;;;9.27;8.48;;;;;;;22.52;56.42;99972.31;10377269;28;20075;-75
2022/08/14 06:45:56;;;;;;;10.70;9.00;;;;;;;22.76;56.12;99976.28;10377652;28;20057;-76
2022/08/14 06:51:03;;;;;;;10.10;9.07;;;;;;;22.94;55.58;99963.78;10377906;28;20050;-75
2022/08/14 06:56:07;;;;;;;10.10;9.23;;;;;;;23.24;55.12;99972.34;10378022;28;20049;-76
2022/08/14 07:06:34;;;;;;;13.77;8.55;;;;;;;23.69;53.63;99974.19;10376953;28;20298;-75
2022/08/14 07:11:49;;;;;;;11.65;9.52;;;;;;;23.59;53.07;99982.91;10376357;28;20049;-77
2022/08/14 07:16:52;;;;;;;9.02;8.13;;;;;;;23.69;53.27;99980.50;10376478;28;20131;-75
2022/08/14 07:21:56;;;;;;;12.15;8.15;;;;;;;24.26;52.08;99969.56;10375906;28;20057;-76
2022/08/14 07:27:00;;;;;;;10.18;9.27;;;;;;;24.14;52.26;99983.19;10373265;28;20073;-76
2022/08/14 07:32:10;;;;;;;9.02;8.13;;;;;;;24.21;52.38;99975.72;10371516;28;20044;-74
2022/08/14 07:37:14;;;;;;;9.32;8.32;;;;;;;24.38;51.83;99973.28;10375819;28;21306;-75
2022/08/14 07:42:17;;;;;;;9.60;8.60;;;;;;;24.72;51.35;99958.16;10372221;28;21359;-75
2022/08/14 07:47:24;;;;;;;9.60;8.63;;;;;;;24.70;51.13;99960.28;10372935;28;20049;-75
2022/08/14 07:52:29;;;;;;;9.73;8.50;;;;;;;25.06;50.53;99941.31;10374126;28;20053;-75
2022/08/14 07:57:34;;;;;;;9.85;8.85;;;;;;;25.25;50.06;99939.41;10371709;28;20604;-75
2022/08/14 08:02:40;;;;;;;9.95;8.88;;;;;;;25.74;48.91;99932.78;10370899;28;20041;-76
2022/08/14 08:07:46;;;;;;;9.57;8.57;;;;;;;25.87;48.51;99931.75;10373264;28;20656;-75
2022/08/14 08:12:52;;;;;;;9.25;8.35;;;;;;;25.82;48.38;99921.44;10372606;28;20576;-76
2022/08/14 08:17:55;;;;;;;9.15;8.25;;;;;;;26.25;47.42;99933.25;10372398;28;20103;-78
2022/08/14 08:23:08;;;;;;;8.63;7.93;;;;;;;26.17;47.61;99939.09;10372271;28;20154;-74
2022/08/14 08:28:24;;;;;;;8.70;7.90;;;;;;;26.37;47.50;99933.25;10397533;28;20139;-73
2022/08/14 08:33:31;;;;;;;9.27;8.30;;;;;;;27.19;45.51;99924.84;10369935;28;20045;-75
2022/08/14 08:38:40;;;;;;;9.48;8.57;;;;;;;26.94;45.48;99917.75;10366001;28;20045;-75
2022/08/14 08:44:04;;;;;;;10.48;8.18;;;;;;;27.51;45.24;99918.84;10359613;28;20085;-76
2022/08/14 08:49:19;;;;;;;8.80;7.90;;;;;;;27.68;43.58;99916.97;10422009;28;20064;-79
2022/08/14 08:54:23;;;;;;;8.90;8.10;;;;;;;27.99;43.17;99907.31;10428298;28;20079;-80
2022/08/14 08:59:29;;;;;;;9.90;8.57;;;;;;;28.43;42.45;99890.03;10426645;28;20052;-80
2022/08/14 09:04:38;;;;;;;9.38;8.48;;;;;;;28.60;42.64;99868.75;10436861;28;20444;-79
2022/08/14 09:09:56;;;;;;;8.82;8.10;;;;;;;29.17;42.11;99858.41;10422979;28;20580;-80
2022/08/14 09:15:04;;;;;;;8.60;7.80;;;;;;;28.91;41.34;99860.84;10420442;28;20076;-80
2022/08/14 09:20:14;;;;;;;10.20;8.30;;;;;;;29.07;41.44;99845.28;10418981;28;20420;-80
2022/08/14 09:25:32;;;;;;;8.57;7.55;;;;;;;29.24;40.99;99847.97;10427434;28;20156;-80
2022/08/14 09:30:57;;;;;;;8.75;7.75;;;;;;;29.26;40.59;99843.00;10424165;28;20106;-81
2022/08/14 09:36:20;;;;;;;9.48;8.35;;;;;;;29.72;38.25;99846.22;10425156;28;20053;-81
2022/08/14 09:41:48;;;;;;;9.77;7.38;;;;;;;29.53;39.22;99848.50;10413019;28;20053;-79
2022/08/14 09:47:11;;;;;;;9.43;8.57;;;;;;;29.77;39.13;99827.72;10425379;28;20045;-80
2022/08/14 09:52:16;;;;;;;8.88;7.97;;;;;;;29.48;39.32;99832.69;10444155;28;21651;-79
2022/08/14 09:57:37;;;;;;;8.57;7.88;;;;;;;29.41;39.53;99826.56;10429127;28;20063;-80
2022/08/14 10:02:52;;;;;;;8.32;7.53;;;;;;;30.12;38.21;99823.50;10407498;28;20064;-80
2022/08/14 10:07:57;;;;;;;8.68;7.97;;;;;;;30.93;37.25;99802.00;10463883;28;20108;-79
2022/08/14 10:13:06;;;;;;;8.77;7.82;;;;;;;31.04;37.28;99796.19;10467940;28;20057;-80
2022/08/14 10:18:11;;;;;;;8.65;7.95;;;;;;;31.55;36.84;99793.50;10433884;28;20048;-80
2022/08/14 10:23:22;;;;;;;8.00;7.30;;;;;;;31.58;36.14;99792.94;10430516;28;20060;-79
2022/08/14 10:28:40;;;;;;;9.23;7.65;;;;;;;31.64;35.08;99788.22;10437516;28;20052;-81
2022/08/14 10:34:05;;;;;;;8.48;7.50;;;;;;;31.22;35.20;99781.00;10426955;28;20134;-80
2022/08/14 10:39:18;;;;;;;8.77;7.85;;;;;;;31.61;34.95;99769.34;10427252;28;20272;-80
2022/08/14 10:44:24;;;;;;;7.95;6.95;;;;;;;31.80;34.59;99772.41;10423123;28;20083;-81
2022/08/14 10:49:34;;;;;;;8.02;7.22;;;;;;;31.99;35.64;99754.03;10433227;28;20180;-81
2022/08/14 10:54:38;;;;;;;8.38;7.57;;;;;;;30.70;36.92;99757.06;10431759;28;20099;-81
2022/08/14 10:59:48;;;;;;;9.32;7.70;;;;;;;30.96;36.13;99746.00;10424199;28;20569;-83
2022/08/14 11:05:10;;;;;;;7.53;6.82;;;;;;;32.66;33.93;99737.94;10431179;28;20043;-84
2022/08/14 11:10:15;;;;;;;8.20;7.40;;;;;;;34.34;32.05;99729.22;10440599;28;20041;-84
2022/08/14 11:15:22;;;;;;;8.60;6.32;;;;;;;33.63;31.66;99722.50;10428763;28;20056;-84
2022/08/14 11:20:28;;;;;;;7.13;6.30;;;;;;;34.13;31.20;99709.13;10430337;28;20052;-83
2022/08/14 11:25:32;;;;;;;7.68;6.70;;;;;;;33.43;32.11;99722.66;10440197;28;20038;-82
2022/08/14 11:30:50;;;;;;;7.50;6.90;;;;;;;32.88;32.93;99711.66;10464481;28;21114;-83
2022/08/14 11:35:59;;;;;;;8.07;7.28;;;;;;;33.76;31.36;99723.72;10417581;28;20120;-84
2022/08/14 11:41:05;;;;;;;8.63;6.90;;;;;;;32.76;32.73;99705.66;10424148;28;20091;-84
2022/08/14 11:46:12;;;;;;;6.55;5.90;;;;;;;31.77;34.14;99703.56;10419119;28;20055;-84
2022/08/14 11:51:33;;;;;;;6.90;5.78;;;;;;;32.29;33.94;99698.69;10430242;28;20091;-84
2022/08/14 11:56:55;;;;;;;7.00;6.20;;;;;;;33.80;32.63;99701.72;10423235;28;20049;-84
2022/08/14 12:02:10;;;;;;;6.82;6.22;;;;;;;33.71;30.77;99688.44;10423220;28;20052;-84
2022/08/14 12:07:48;;;;;;;6.53;6.00;;;;;;;32.71;32.36;99670.38;10429491;28;20044;-83
2022/08/14 12:12:55;;;;;;;6.18;5.68;;;;;;;33.78;31.89;99651.88;10429694;28;20045;-84
2022/08/14 12:18:05;;;;;;;;;;;;;;;35.10;30.07;99648.31;10431919;28;20041;-87
2022/08/14 12:23:23;;;;;;;5.50;5.00;;;;;;;33.91;29.87;99655.91;10443147;28;19937;-83
2022/08/14 12:28:27;;;;;;;6.03;5.53;;;;;;;34.30;30.38;99650.09;10452554;28;20113;-83
2022/08/14 12:34:08;;;;;;;5.88;5.43;;;;;;;34.28;29.74;99649.56;10430664;28;20109;-83
2022/08/14 12:39:18;;;;;;;7.88;5.35;;;;;;;34.30;29.43;99640.91;10459154;28;20049;-83
2022/08/14 12:44:30;;;;;;;6.88;4.72;;;;;;;35.40;28.51;99638.56;10418018;28;20053;-83
2022/08/14 12:49:35;;;;;;;6.70;5.57;;;;;;;35.84;27.71;99611.19;10453561;28;20984;-83
2022/08/14 12:54:40;;;;;;;5.43;4.90;;;;;;;35.64;27.81;99602.09;10445446;28;20055;-83
2022/08/14 13:00:09;;;;;;;5.53;5.10;;;;;;;36.25;27.33;99582.34;10417296;28;21083;-83
2022/08/14 13:05:34;;;;;;;6.05;5.55;;;;;;;35.69;28.11;99588.03;10433388;28;20045;-83
2022/08/14 13:10:40;;;;;;;8.35;5.70;;;;;;;36.05;28.69;99576.09;10426487;28;20064;-84
2022/08/14 13:15:56;;;;;;;5.22;4.82;;;;;;;37.49;26.70;99568.53;10422254;28;20061;-85
2022/08/14 13:21:04;;;;;;;5.72;4.70;;;;;;;37.34;26.19;99576.56;10425747;28;20056;-84
2022/08/14 13:26:07;;;;;;;5.45;4.88;;;;;;;34.61;29.06;99589.19;10430968;28;20056;-85
2022/08/14 13:31:15;;;;;;;5.03;4.53;;;;;;;34.14;29.30;99574.25;10436535;28;20090;-84
2022/08/14 13:36:22;;;;;;;6.20;4.68;;;;;;;34.59;28.89;99569.13;10422875;28;21349;-83
2022/08/14 13:41:46;;;;;;;5.32;4.93;;;;;;;35.56;27.72;99555.34;10421273;28;20063;-82
2022/08/14 13:46:58;;;;;;;5.43;4.93;;;;;;;33.79;29.95;99549.66;10436503;28;20072;-83
2022/08/14 13:52:11;;;;;;;6.07;5.47;;;;;;;34.33;29.97;99551.13;10456320;28;20049;-83
2022/08/14 13:57:42;;;;;;;5.95;5.00;;;;;;;33.69;29.98;99531.16;10454705;28;20049;-85
2022/08/14 14:03:00;;;;;;;5.70;5.20;;;;;;;34.63;28.96;99522.75;10469787;28;20062;-83
2022/08/14 14:08:06;;;;;;;5.40;5.00;;;;;;;35.20;27.97;99508.63;10461847;28;20060;-83
2022/08/14 14:13:25;;;;;;;5.55;5.00;;;;;;;34.20;29.19;99506.19;10433150;28;20053;-83
2022/08/14 14:18:29;;;;;;;5.75;5.18;;;;;;;34.76;28.64;99498.84;10432824;28;20055;-81
2022/08/14 14:23:38;;;;;;;5.20;4.90;;;;;;;34.83;28.55;99502.06;10417552;28;20045;-81
2022/08/14 14:28:44;;;;;;;5.50;5.10;;;;;;;35.40;28.54;99490.59;10415619;28;20045;-80
2022/08/14 14:33:49;;;;;;;6.85;5.88;;;;;;;35.72;27.65;99478.47;10428266;28;20099;-80
2022/08/14 14:38:56;;;;;;;5.13;4.75;;;;;;;34.88;28.14;99473.22;10470765;28;20033;-80
2022/08/14 14:44:00;;;;;;;5.57;5.07;;;;;;;35.57;27.29;99464.03;10437723;28;20183;-81
2022/08/14 14:49:12;;;;;;;5.20;4.80;;;;;;;35.62;27.47;99461.13;10425492;28;20056;-81
2022/08/14 14:54:19;;;;;;;5.22;4.82;;;;;;;35.39;27.62;99461.03;10427086;28;20045;-81
2022/08/14 14:59:36;;;;;;;6.30;5.10;;;;;;;35.71;27.43;99440.53;10424857;28;20057;-81
2022/08/14 15:04:39;;;;;;;5.35;4.95;;;;;;;36.05;26.85;99432.78;10428395;28;20045;-79
2022/08/14 15:09:48;;;;;;;4.88;4.57;;;;;;;35.27;26.94;99414.16;10459355;28;20056;-79
2022/08/14 15:14:54;;;;;;;5.00;4.60;;;;;;;34.97;27.56;99425.91;10421111;28;20049;-80
2022/08/14 15:20:14;;;;;;;5.20;4.70;;;;;;;35.16;27.53;99428.59;10427666;28;20048;-79
2022/08/14 15:25:38;;;;;;;6.07;5.47;;;;;;;35.05;27.62;99439.16;10421419;28;20045;-79
2022/08/14 15:30:44;;;;;;;5.88;5.43;;;;;;;35.04;28.00;99426.34;10437766;28;20049;-80
2022/08/14 15:35:53;;;;;;;5.37;4.97;;;;;;;35.70;27.48;99413.72;10422208;28;20051;-80
2022/08/14 15:41:04;;;;;;;6.63;4.82;;;;;;;34.93;28.49;99422.91;10419661;28;21589;-80
2022/08/14 15:46:10;;;;;;;5.28;4.85;;;;;;;33.98;28.48;99422.38;10427917;28;20052;-78
2022/08/14 15:51:34;;;;;;;5.88;5.03;;;;;;;33.37;29.51;99417.72;10453847;28;20071;-79
2022/08/14 15:56:45;;;;;;;6.10;5.50;;;;;;;32.78;30.20;99409.53;10425396;28;20044;-80
2022/08/14 16:01:51;;;;;;;6.57;5.70;;;;;;;31.84;31.73;99398.69;10422353;28;20494;-77
2022/08/14 16:06:56;;;;;;;6.18;5.68;;;;;;;31.78;32.40;99406.22;10412387;28;20526;-80
2022/08/14 16:12:01;;;;;;;7.00;6.30;;;;;;;31.29;32.86;99406.25;10424644;28;20110;-79
2022/08/14 16:17:06;;;;;;;6.40;5.80;;;;;;;30.97;33.72;99404.72;10416742;28;20051;-76
2022/08/14 16:22:10;;;;;;;6.10;5.45;;;;;;;30.90;34.43;99399.47;10416389;28;20558;-75
2022/08/14 16:27:35;;;;;;;6.38;5.78;;;;;;;30.84;34.58;99391.47;10400693;28;20714;-76
2022/08/14 16:32:42;;;;;;;6.30;5.80;;;;;;;30.68;34.40;99388.72;10410670;28;20141;-76
2022/08/14 16:37:58;;;;;;;6.63;5.95;;;;;;;30.62;34.24;99392.59;10415243;28;20463;-77
2022/08/14 16:43:24;;;;;;;7.10;6.40;;;;;;;30.63;34.06;99388.72;10393815;28;20049;-76
2022/08/14 16:48:29;;;;;;;6.47;5.97;;;;;;;30.90;33.52;99382.81;10409373;28;20076;-75
2022/08/14 16:53:53;;;;;;;7.32;5.82;;;;;;;32.18;32.08;99375.69;10409148;28;20054;-76
2022/08/14 16:59:09;;;;;;;6.20;5.60;;;;;;;31.98;31.68;99371.09;10398475;28;20132;-75
2022/08/14 17:04:15;;;;;;;6.85;6.25;;;;;;;31.69;32.73;99368.31;10414482;28;20086;-76
2022/08/14 17:09:30;;;;;;;6.30;5.70;;;;;;;32.19;32.30;99364.25;10408720;28;20045;-76
2022/08/14 17:14:55;;;;;;;6.32;5.68;;;;;;;31.90;32.61;99367.03;10419315;28;20045;-77
2022/08/14 17:20:01;;;;;;;6.30;5.68;;;;;;;31.31;32.72;99362.41;10408126;28;20052;-77
2022/08/14 17:25:27;;;;;;;5.90;5.45;;;;;;;32.14;31.89;99352.34;10422208;28;20053;-76
2022/08/14 17:30:48;;;;;;;6.65;6.05;;;;;;;32.90;30.79;99350.72;10414647;28;20049;-75
2022/08/14 17:36:09;;;;;;;6.35;5.75;;;;;;;33.97;29.75;99338.00;10397913;28;20052;-75
2022/08/14 17:41:24;;;;;;;;;;;;;;;34.31;29.47;99347.16;10386804;28;20075;-75
2022/08/14 17:46:42;;;;;;;6.90;6.32;;;;;;;32.88;30.84;99334.34;10421242;28;19932;-78
2022/08/14 17:52:02;;;;;;;7.47;5.38;;;;;;;31.76;32.29;99343.81;10414365;28;20060;-75
2022/08/14 17:57:12;;;;;;;6.13;5.63;;;;;;;31.20;33.36;99338.63;10424042;28;20760;-76
2022/08/14 18:02:26;;;;;;;7.00;6.40;;;;;;;30.74;33.87;99349.91;10419995;28;20044;-76
2022/08/14 18:07:41;;;;;;;6.85;6.25;;;;;;;30.34;34.33;99343.38;10418465;28;20235;-77
2022/08/14 18:13:09;;;;;;;6.95;6.35;;;;;;;30.12;34.84;99347.25;10418786;28;20049;-76
2022/08/14 18:18:14;;;;;;;6.95;6.25;;;;;;;29.86;35.80;99343.69;10416126;28;20049;-77
2022/08/14 18:23:20;;;;;;;7.38;6.60;;;;;;;29.60;35.89;99342.84;10420721;28;20053;-76
2022/08/14 18:28:28;;;;;;;8.15;6.40;;;;;;;29.42;36.90;99348.88;10416349;28;20164;-78
2022/08/14 18:33:55;;;;;;;7.60;6.25;;;;;;;29.19;37.13;99353.81;10408710;28;20049;-77
2022/08/14 18:39:28;;;;;;;6.85;6.25;;;;;;;29.03;37.47;99357.59;10403235;28;20186;-76
2022/08/14 18:45:05;;;;;;;7.28;6.32;;;;;;;28.81;37.94;99350.34;10399385;28;20053;-77
2022/08/14 18:50:23;;;;;;;8.60;6.13;;;;;;;28.60;37.75;99356.88;10434148;28;20510;-77
2022/08/14 18:55:42;;;;;;;7.40;6.55;;;;;;;28.43;38.09;99359.78;10406479;28;20174;-76
2022/08/14 19:00:58;;;;;;;11.55;7.93;;;;;;;28.35;38.10;99355.59;10400612;28;20048;-77
2022/08/14 19:06:04;;;;;;;9.70;8.70;;;;;;;28.25;38.77;99356.38;10412075;28;20048;-76
2022/08/14 19:11:50;;;;;;;10.80;8.77;;;;;;;28.18;38.52;99350.25;10410961;28;20045;-75
2022/08/14 19:16:53;;;;;;;8.60;7.80;;;;;;;28.08;39.06;99352.09;10415212;28;20087;-77
2022/08/14 19:21:57;;;;;;;10.40;7.30;;;;;;;27.98;38.99;99348.19;10416406;28;20098;-77
2022/08/14 19:27:18;;;;;;;8.15;7.15;;;;;;;27.81;39.74;99344.69;10409388;28;20071;-77
2022/08/14 19:32:39;;;;;;;7.75;6.63;;;;;;;27.73;39.83;99347.94;10402893;28;20057;-75
2022/08/14 19:37:46;;;;;;;9.00;6.40;;;;;;;27.62;40.10;99347.03;10417463;28;20170;-77
2022/08/14 19:42:56;;;;;;;8.00;6.80;;;;;;;27.49;40.00;99340.00;10403712;28;20053;-77
2022/08/14 19:48:01;;;;;;;7.82;7.13;;;;;;;27.37;40.26;99339.28;10411248;28;20048;-78
2022/08/14 19:53:08;;;;;;;6.82;6.15;;;;;;;27.31;40.40;99341.16;10412082;28;20844;-76
2022/08/14 19:58:13;;;;;;;7.10;6.47;;;;;;;27.24;40.75;99340.56;10407324;28;20698;-77
2022/08/14 20:03:16;;;;;;;7.25;6.32;;;;;;;27.18;40.77;99342.44;10425823;28;20069;-76
2022/08/14 20:08:27;;;;;;;7.15;6.55;;;;;;;27.14;41.09;99343.19;10419546;28;21199;-77
2022/08/14 20:13:56;;;;;;;6.57;5.97;;;;;;;27.04;41.29;99348.59;10401214;28;20468;-77
2022/08/14 20:19:12;;;;;;;8.50;6.57;;;;;;;26.90;41.44;99346.22;10391835;28;20054;-77
2022/08/14 20:24:27;;;;;;;8.02;6.75;;;;;;;26.79;41.80;99338.91;10407521;28;20426;-76
2022/08/14 20:29:32;;;;;;;8.38;6.72;;;;;;;26.71;41.93;99345.72;10403496;28;20045;-76
2022/08/14 20:34:42;;;;;;;8.95;7.00;;;;;;;26.64;42.25;99347.81;10414660;28;22376;-77
2022/08/14 20:39:54;;;;;;;7.45;6.75;;;;;;;26.48;42.42;99341.25;10411834;28;20145;-77
2022/08/14 20:45:18;;;;;;;7.57;6.88;;;;;;;26.44;42.44;99347.53;10410086;28;20048;-75
2022/08/14 20:50:28;;;;;;;8.32;7.53;;;;;;;26.38;42.51;99349.38;10418876;23;20045;-76
2022/08/14 20:55:39;;;;;;;7.50;6.85;;;;;;;26.36;42.20;99342.47;10378425;28;20545;-77
2022/08/14 21:00:46;;;;;;;10.25;7.63;;;;;;;26.35;42.56;99335.28;10336342;28;20062;-77
2022/08/14 21:05:57;;;;;;;9.25;6.60;;;;;;;26.38;42.61;99338.34;10378045;28;20037;-77
2022/08/14 21:11:01;;;;;;;7.50;6.82;;;;;;;26.34;42.53;99330.88;10378152;28;20091;-76
2022/08/14 21:16:08;;;;;;;8.13;6.97;;;;;;;26.26;42.66;99332.97;10384403;28;20083;-77
2022/08/14 21:21:33;;;;;;;8.27;7.28;;;;;;;26.17;42.97;99333.66;10389566;28;20121;-78
2022/08/14 21:26:45;;;;;;;10.05;7.32;;;;;;;25.94;43.51;99327.22;10381934;28;20058;-76
2022/08/14 21:32:07;;;;;;;8.30;7.50;;;;;;;25.86;43.38;99324.91;10353294;28;20465;-77
2022/08/14 21:37:24;;;;;;;7.95;7.15;;;;;;;25.76;43.61;99330.25;10345445;28;20487;-76
2022/08/14 21:42:31;;;;;;;8.00;7.30;;;;;;;25.68;43.72;99322.41;10351947;28;20046;-78
2022/08/14 21:47:37;;;;;;;8.00;7.30;;;;;;;25.58;44.23;99326.59;10340196;28;20042;-77
2022/08/14 21:52:46;;;;;;;8.50;7.28;;;;;;;25.45;44.25;99329.69;10343662;28;20084;-77
2022/08/14 21:58:02;;;;;;;8.40;7.70;;;;;;;25.35;44.37;99329.50;10362294;28;20038;-77
2022/08/14 22:03:25;;;;;;;11.25;7.95;;;;;;;25.22;44.50;99338.88;10359175;28;20137;-75
2022/08/14 22:08:38;;;;;;;8.95;7.50;;;;;;;25.04;44.36;99328.94;10354531;28;20089;-76
2022/08/14 22:13:47;;;;;;;9.70;8.02;;;;;;;24.95;43.87;99324.88;10358846;28;20077;-76
2022/08/14 22:18:51;;;;;;;9.43;7.47;;;;;;;24.91;43.78;99321.78;10354878;28;20092;-76
2022/08/14 22:24:00;;;;;;;7.95;7.13;;;;;;;24.89;43.74;99323.09;10344544;28;20533;-76
2022/08/14 22:29:14;;;;;;;8.18;7.43;;;;;;;24.88;44.06;99311.28;10345728;28;20117;-77
2022/08/14 22:34:19;;;;;;;8.13;7.03;;;;;;;24.85;44.27;99298.06;10358979;28;20045;-76
2022/08/14 22:39:26;;;;;;;8.13;6.95;;;;;;;24.87;44.06;99304.13;10358578;28;20427;-76
2022/08/14 22:44:49;;;;;;;8.77;7.10;;;;;;;24.83;44.25;99302.94;10363999;28;20081;-76
2022/08/14 22:49:52;;;;;;;7.50;6.90;;;;;;;24.90;44.01;99298.16;10353175;28;20163;-76
2022/08/14 22:55:17;;;;;;;8.18;7.35;;;;;;;24.93;43.90;99294.06;10350193;28;20144;-76
2022/08/14 23:00:22;;;;;;;10.40;6.93;;;;;;;24.72;44.23;99290.94;10347405;28;20455;-76
2022/08/14 23:05:31;;;;;;;9.02;7.68;;;;;;;24.83;44.42;99282.91;10361989;28;20038;-76
2022/08/14 23:10:56;;;;;;;7.93;7.13;;;;;;;24.75;44.23;99293.19;10361474;28;20046;-76
2022/08/14 23:15:58;;;;;;;8.70;7.10;;;;;;;24.69;44.57;99285.09;10352142;28;20380;-75
2022/08/14 23:21:01;;;;;;;8.13;7.32;;;;;;;24.68;44.26;99288.91;10378336;28;20050;-75
2022/08/14 23:26:07;;;;;;;8.40;7.07;;;;;;;24.61;44.43;99305.53;10369706;28;20046;-76
2022/08/14 23:31:31;;;;;;;8.20;7.47;;;;;;;24.43;44.71;99291.97;10350405;28;20046;-76
2022/08/14 23:36:39;;;;;;;7.85;7.03;;;;;;;24.50;44.74;99289.94;10355660;28;20046;-75
2022/08/14 23:42:00;;;;;;;9.23;7.55;;;;;;;24.32;45.30;99296.38;10352500;28;20046;-77
2022/08/14 23:47:09;;;;;;;8.57;7.75;;;;;;;24.25;45.71;99284.69;10355610;28;20052;-78
2022/08/14 23:52:28;;;;;;;8.20;7.40;;;;;;;24.26;45.59;99284.44;10354541;28;20053;-78
2022/08/14 23:57:53;;;;;;;9.07;7.28;;;;;;;24.05;46.33;99272.22;10353877;28;20058;-77
